createdAt,value
2022-07-29T00:01:55.184Z,2.90
2022-07-29T00:06:57.634Z,3.13
2022-07-29T00:12:02.197Z,3.20
2022-07-29T00:17:04.808Z,3.03
2022-07-29T00:22:07.254Z,3.90
2022-07-29T00:27:09.702Z,3.97
2022-07-29T00:32:12.411Z,3.17
2022-07-29T00:37:14.921Z,3.13
2022-07-29T00:42:17.745Z,3.07
2022-07-29T00:47:20.493Z,3.30
2022-07-29T00:52:23.076Z,3.00
2022-07-29T00:57:25.767Z,4.07
2022-07-29T01:02:28.395Z,3.60
2022-07-29T01:07:33.342Z,3.87
2022-07-29T01:12:37.987Z,4.13
2022-07-29T01:17:52.845Z,3.50
2022-07-29T01:23:21.591Z,3.83
2022-07-29T01:29:01.517Z,4.17
2022-07-29T01:34:13.079Z,3.90
2022-07-29T01:39:24.441Z,4.00
2022-07-29T01:44:34.060Z,4.50
2022-07-29T01:49:40.579Z,3.93
2022-07-29T01:54:53.259Z,4.23
2022-07-29T01:59:58.169Z,4.23
2022-07-29T02:05:04.357Z,3.77
2022-07-29T02:10:09.883Z,4.60
2022-07-29T02:15:13.118Z,3.93
2022-07-29T02:20:17.767Z,4.90
2022-07-29T02:25:26.027Z,4.43
2022-07-29T02:30:43.304Z,4.33
2022-07-29T02:35:47.726Z,4.30
2022-07-29T02:40:54.642Z,4.50
2022-07-29T02:46:00.120Z,4.67
2022-07-29T02:51:43.708Z,4.43
2022-07-29T02:56:45.853Z,5.10
2022-07-29T03:01:49.055Z,4.47
2022-07-29T03:06:53.472Z,5.00
2022-07-29T03:11:57.961Z,5.37
2022-07-29T03:17:00.974Z,4.97
2022-07-29T03:22:03.667Z,4.97
2022-07-29T03:27:06.588Z,5.03
2022-07-29T03:32:09.161Z,5.40
2022-07-29T03:37:11.658Z,5.03
2022-07-29T03:42:17.306Z,5.07
2022-07-29T03:47:43.656Z,5.10
2022-07-29T03:52:47.450Z,4.70
2022-07-29T03:57:51.598Z,4.90
2022-07-29T04:02:54.248Z,6.10
2022-07-29T04:07:56.862Z,5.30
2022-07-29T04:13:00.913Z,5.00
2022-07-29T04:18:03.497Z,4.93
2022-07-29T04:23:05.923Z,5.47
2022-07-29T04:28:09.353Z,4.47
2022-07-29T04:33:11.836Z,4.60
2022-07-29T04:38:15.686Z,4.97
2022-07-29T04:43:22.487Z,5.07
2022-07-29T04:48:28.682Z,4.23
2022-07-29T04:53:31.647Z,4.47
2022-07-29T04:58:37.253Z,3.77
2022-07-29T05:03:39.745Z,4.27
2022-07-29T05:08:42.243Z,4.10
2022-07-29T05:13:45.769Z,4.33
2022-07-29T05:18:49.642Z,3.60
2022-07-29T05:23:52.041Z,3.90
2022-07-29T05:28:55.494Z,3.77
2022-07-29T05:33:58.133Z,3.20
2022-07-29T05:39:00.588Z,3.47
2022-07-29T05:44:03.240Z,3.50
2022-07-29T05:49:07.566Z,3.63
2022-07-29T05:54:10.494Z,3.50
2022-07-29T05:59:17.805Z,3.47
2022-07-29T06:04:21.259Z,3.20
2022-07-29T06:09:24.123Z,3.20
2022-07-29T06:14:27.682Z,3.67
2022-07-29T06:19:30.216Z,3.43
2022-07-29T06:24:32.680Z,2.93
2022-07-29T06:29:35.244Z,3.40
2022-07-29T06:34:37.670Z,2.63
2022-07-29T06:39:40.116Z,3.13
2022-07-29T06:44:42.910Z,2.63
2022-07-29T06:49:45.352Z,2.47
2022-07-29T06:54:49.330Z,2.60
2022-07-29T06:59:51.759Z,2.80
2022-07-29T07:04:54.370Z,2.33
2022-07-29T07:09:56.844Z,2.28
2022-07-29T07:14:59.271Z,2.55
2022-07-29T07:20:01.881Z,2.28
2022-07-29T07:25:04.579Z,2.30
2022-07-29T07:30:07.999Z,2.92
2022-07-29T07:35:11.915Z,2.65
2022-07-29T07:40:18.528Z,2.10
2022-07-29T07:45:21.493Z,1.90
2022-07-29T07:50:24.125Z,1.88
2022-07-29T07:55:27.288Z,2.05
2022-07-29T08:00:29.955Z,2.38
2022-07-29T08:05:32.648Z,2.83
2022-07-29T08:10:54.399Z,2.05
2022-07-29T08:16:18.154Z,1.85
2022-07-29T08:21:20.662Z,2.50
2022-07-29T08:26:23.721Z,1.75
2022-07-29T08:31:26.349Z,1.67
2022-07-29T08:36:28.998Z,1.83
2022-07-29T08:41:32.394Z,1.95
2022-07-29T08:46:35.098Z,2.35
2022-07-29T08:51:48.539Z,1.92
2022-07-29T08:56:52.971Z,2.28
2022-07-29T09:02:00.724Z,1.70
2022-07-29T09:07:05.940Z,1.90
2022-07-29T09:12:09.283Z,1.67
2022-07-29T09:17:11.768Z,2.33
2022-07-29T09:22:31.280Z,1.90
2022-07-29T09:27:34.701Z,1.90
2022-07-29T09:33:02.279Z,1.70
2022-07-29T09:38:14.908Z,1.60
2022-07-29T09:43:17.355Z,2.35
2022-07-29T09:48:26.002Z,1.88
2022-07-29T09:53:37.547Z,1.80
2022-07-29T09:58:41.172Z,2.10
2022-07-29T10:03:54.069Z,2.50
2022-07-29T10:09:07.553Z,1.77
2022-07-29T10:14:10.218Z,1.70
2022-07-29T10:19:14.799Z,2.47
2022-07-29T10:24:17.526Z,1.77
2022-07-29T10:29:20.090Z,1.80
2022-07-29T10:34:34.210Z,1.95
2022-07-29T10:40:24.917Z,1.33
2022-07-29T10:45:27.686Z,1.60
2022-07-29T10:51:05.395Z,1.48
2022-07-29T10:56:28.272Z,1.65
2022-07-29T11:01:37.281Z,1.73
2022-07-29T11:07:05.226Z,1.60
2022-07-29T11:12:42.960Z,1.90
2022-07-29T11:17:54.645Z,1.50
2022-07-29T11:22:57.136Z,1.90
2022-07-29T11:28:22.731Z,1.70
2022-07-29T11:33:54.037Z,1.80
2022-07-29T11:39:27.558Z,2.08
2022-07-29T11:50:52.526Z,1.90
2022-07-29T11:55:58.084Z,1.80
2022-07-29T12:01:04.280Z,1.90
2022-07-29T12:06:18.095Z,1.90
2022-07-29T12:07:03.897Z,2.28
2022-07-29T12:11:23.279Z,1.83
2022-07-29T12:16:37.121Z,2.40
2022-07-29T12:21:56.301Z,1.90
2022-07-29T12:27:02.697Z,1.77
2022-07-29T12:32:14.242Z,1.90
2022-07-29T12:37:18.108Z,2.25
2022-07-29T12:42:20.687Z,1.67
2022-07-29T12:47:26.380Z,2.10
2022-07-29T12:52:34.054Z,2.08
2022-07-29T12:57:53.474Z,2.00
2022-07-29T13:02:57.876Z,1.50
2022-07-29T13:08:21.980Z,2.30
2022-07-29T13:13:26.538Z,4.28
2022-07-29T13:18:33.566Z,1.85
2022-07-29T13:23:38.244Z,1.80
2022-07-29T13:28:41.043Z,2.88
2022-07-29T13:33:47.258Z,1.83
2022-07-29T13:38:49.852Z,2.97
2022-07-29T13:43:52.573Z,1.80
2022-07-29T13:48:55.370Z,1.60
2022-07-29T13:53:57.933Z,4.80
2022-07-29T13:59:01.248Z,2.30
2022-07-29T14:04:05.165Z,1.70
2022-07-29T14:09:09.971Z,1.80
2022-07-29T14:14:12.735Z,2.40
2022-07-29T14:19:15.471Z,1.70
2022-07-29T14:24:21.713Z,1.55
2022-07-29T14:29:37.038Z,1.73
2022-07-29T14:34:41.134Z,2.05
2022-07-29T14:39:43.671Z,1.80
2022-07-29T14:44:46.247Z,1.70
2022-07-29T14:49:49.483Z,1.90
2022-07-29T14:54:52.194Z,1.88
2022-07-29T14:59:54.820Z,1.60
2022-07-29T15:04:57.700Z,3.28
2022-07-29T15:10:03.701Z,3.65
2022-07-29T15:15:06.781Z,2.00
2022-07-29T15:20:10.034Z,1.70
2022-07-29T15:25:12.814Z,1.70
2022-07-29T15:30:30.940Z,2.40
2022-07-29T15:35:40.414Z,1.90
2022-07-29T15:40:44.639Z,2.42
2022-07-29T15:46:06.018Z,1.92
2022-07-29T15:51:09.000Z,1.83
2022-07-29T15:56:11.871Z,1.80
2022-07-29T16:01:14.760Z,2.60
2022-07-29T16:06:18.036Z,1.88
2022-07-29T16:11:20.928Z,1.88
2022-07-29T16:16:23.798Z,2.10
2022-07-29T16:21:26.619Z,2.33
2022-07-29T16:26:29.263Z,2.00
2022-07-29T16:31:32.387Z,2.30
2022-07-29T16:36:34.871Z,2.28
2022-07-29T16:41:40.146Z,1.80
2022-07-29T16:46:44.913Z,1.95
2022-07-29T16:51:49.999Z,2.08
2022-07-29T16:56:52.886Z,2.60
2022-07-29T17:01:55.564Z,2.55
2022-07-29T17:06:58.665Z,2.08
2022-07-29T17:12:01.869Z,2.78
2022-07-29T17:17:13.810Z,2.13
2022-07-29T17:22:23.600Z,1.90
2022-07-29T17:27:26.043Z,1.40
2022-07-29T17:32:28.482Z,1.63
2022-07-29T17:37:30.970Z,2.03
2022-07-29T17:42:33.723Z,1.88
2022-07-29T17:47:38.525Z,1.90
2022-07-29T17:52:41.749Z,1.45
2022-07-29T17:57:44.273Z,1.58
2022-07-29T18:02:47.108Z,1.45
2022-07-29T18:07:50.086Z,1.45
2022-07-29T18:12:56.452Z,1.83
2022-07-29T18:17:59.003Z,1.70
2022-07-29T18:23:02.138Z,1.50
2022-07-29T18:28:05.310Z,1.80
2022-07-29T18:33:21.811Z,1.60
2022-07-29T18:38:24.470Z,1.50
2022-07-29T18:43:26.889Z,1.77
2022-07-29T18:48:29.401Z,1.80
2022-07-29T18:53:31.889Z,1.92
2022-07-29T18:58:39.606Z,1.65
2022-07-29T19:03:42.091Z,1.63
2022-07-29T19:08:44.549Z,2.10
2022-07-29T19:13:47.871Z,1.80
2022-07-29T19:18:50.358Z,1.92
2022-07-29T19:24:01.556Z,1.85
2022-07-29T19:29:10.106Z,1.85
2022-07-29T19:34:12.752Z,1.50
2022-07-29T19:39:15.525Z,2.15
2022-07-29T19:44:20.982Z,2.47
2022-07-29T19:49:23.626Z,2.10
2022-07-29T19:54:26.912Z,2.20
2022-07-29T19:59:29.555Z,2.40
2022-07-29T20:04:32.230Z,2.30
2022-07-29T20:09:37.047Z,3.08
2022-07-29T20:14:39.870Z,2.80
2022-07-29T20:19:45.629Z,2.28
2022-07-29T20:24:48.256Z,2.50
2022-07-29T20:29:50.698Z,2.47
2022-07-29T20:34:53.184Z,3.63
2022-07-29T20:39:55.601Z,2.80
2022-07-29T20:44:58.587Z,3.00
2022-07-29T20:50:01.236Z,2.30
2022-07-29T20:55:04.061Z,2.17
2022-07-29T21:00:09.296Z,2.15
2022-07-29T21:05:11.975Z,2.10
2022-07-29T21:10:15.048Z,2.77
2022-07-29T21:15:20.865Z,2.40
2022-07-29T21:20:23.345Z,2.07
2022-07-29T21:25:26.523Z,2.20
2022-07-29T21:30:29.021Z,2.83
2022-07-29T21:36:06.280Z,2.47
2022-07-29T21:40:54.461Z,2.50
2022-07-29T21:45:58.199Z,2.40
2022-07-29T21:51:00.695Z,2.80
2022-07-29T21:56:03.180Z,2.50
2022-07-29T22:01:06.859Z,2.47
2022-07-29T22:06:16.646Z,2.77
2022-07-29T22:11:21.042Z,2.80
2022-07-29T22:16:23.967Z,2.50
2022-07-29T22:21:26.608Z,2.53
2022-07-29T22:26:29.149Z,2.73
2022-07-29T22:31:31.686Z,2.80
2022-07-29T22:36:34.132Z,2.70
2022-07-29T22:41:36.650Z,2.83
2022-07-29T22:46:39.127Z,2.83
2022-07-29T22:51:41.641Z,2.93
2022-07-29T22:56:44.141Z,3.03
2022-07-29T23:01:46.653Z,2.90
2022-07-29T23:06:49.842Z,3.30
2022-07-29T23:11:52.317Z,3.00
2022-07-29T23:16:55.277Z,3.00
2022-07-29T23:21:57.807Z,3.07
2022-07-29T23:27:00.455Z,2.67
2022-07-29T23:32:03.320Z,3.33
2022-07-29T23:37:06.042Z,3.20
2022-07-29T23:42:08.478Z,2.97
2022-07-29T23:47:10.945Z,3.03
2022-07-29T23:52:13.421Z,2.80
2022-07-29T23:57:15.867Z,3.40
